地図

経路データ

SID SEASON NUMBER BASIN SUBBASIN NAME ISO_TIME NATURE LAT LON WMO_WIND WMO_PRES WMO_AGENCY TRACK_TYPE DIST2LAND LANDFALL IFLAG USA_AGENCY USA_ATCF_ID USA_LAT USA_LON USA_RECORD USA_STATUS USA_WIND USA_PRES USA_SSHS USA_R34_NE USA_R34_SE USA_R34_SW USA_R34_NW USA_R50_NE USA_R50_SE USA_R50_SW USA_R50_NW USA_R64_NE USA_R64_SE USA_R64_SW USA_R64_NW USA_POCI USA_ROCI USA_RMW USA_EYE TOKYO_LAT TOKYO_LON TOKYO_GRADE TOKYO_WIND TOKYO_PRES TOKYO_R50_DIR TOKYO_R50_LONG TOKYO_R50_SHORT TOKYO_R30_DIR TOKYO_R30_LONG TOKYO_R30_SHORT TOKYO_LAND CMA_LAT CMA_LON CMA_CAT CMA_WIND CMA_PRES HKO_LAT HKO_LON HKO_CAT HKO_WIND HKO_PRES NEWDELHI_LAT NEWDELHI_LON NEWDELHI_GRADE NEWDELHI_WIND NEWDELHI_PRES NEWDELHI_CI NEWDELHI_DP NEWDELHI_POCI REUNION_LAT REUNION_LON REUNION_TYPE REUNION_WIND REUNION_PRES REUNION_TNUM REUNION_CI REUNION_RMW REUNION_R34_NE REUNION_R34_SE REUNION_R34_SW REUNION_R34_NW REUNION_R50_NE REUNION_R50_SE REUNION_R50_SW REUNION_R50_NW REUNION_R64_NE REUNION_R64_SE REUNION_R64_SW REUNION_R64_NW BOM_LAT BOM_LON BOM_TYPE BOM_WIND BOM_PRES BOM_TNUM BOM_CI BOM_RMW BOM_R34_NE BOM_R34_SE BOM_R34_SW BOM_R34_NW BOM_R50_NE BOM_R50_SE BOM_R50_SW BOM_R50_NW BOM_R64_NE BOM_R64_SE BOM_R64_SW BOM_R64_NW BOM_ROCI BOM_POCI BOM_EYE BOM_POS_METHOD BOM_PRES_METHOD NADI_LAT NADI_LON NADI_CAT NADI_WIND NADI_PRES WELLINGTON_LAT WELLINGTON_LON WELLINGTON_WIND WELLINGTON_PRES DS824_LAT DS824_LON DS824_STAGE DS824_WIND DS824_PRES TD9636_LAT TD9636_LON TD9636_STAGE TD9636_WIND TD9636_PRES TD9635_LAT TD9635_LON TD9635_WIND TD9635_PRES TD9635_ROCI NEUMANN_LAT NEUMANN_LON NEUMANN_CLASS NEUMANN_WIND NEUMANN_PRES MLC_LAT MLC_LON MLC_CLASS MLC_WIND MLC_PRES USA_GUST BOM_GUST BOM_GUST_PER REUNION_GUST REUNION_GUST_PER USA_SEAHGT USA_SEARAD_NE USA_SEARAD_SE USA_SEARAD_SW USA_SEARAD_NW STORM_SPEED STORM_DIR
1976034S21228 1976 12 SP MM FRANCES 1976-02-02 12:00:00 TS -21.0000 -132.200 main 4309 4104 O________O____ jtwc_sh SH141976 -21.0000 -132.200 -1 -21.0000 227.800 TC 39 265
1976034S21228 1976 12 SP MM FRANCES 1976-02-02 15:00:00 TS -21.1618 -134.287 main 4093 3919 P________P____ SH141976 -21.1618 -134.287 -1 -21.1618 -134.287 TC 37 265
1976034S21228 1976 12 SP MM FRANCES 1976-02-02 18:00:00 TS -21.3000 -136.100 main 3909 3777 O________O____ jtwc_sh SH141976 -21.3000 -136.100 -1 -21.3000 223.900 TC 29 265
1976034S21228 1976 12 SP MM FRANCES 1976-02-02 21:00:00 TS -21.4200 -137.425 main 3777 3686 P________P____ SH141976 -21.4200 -137.425 -1 -21.4200 -137.425 TC 21 264
1976034S21228 1976 12 SP MM FRANCES 1976-02-03 00:00:00 TS -21.5000 -138.300 main 3686 3634 O________OO___ jtwc_sh SH141976 -21.5000 -138.300 -1 -21.5000 221.700 TC 65 -21.5000 -138.300 4 13 266
1976034S21228 1976 12 SP MM FRANCES 1976-02-03 03:00:00 TS -21.5115 -138.834 main 3634 3593 P________PP___ SH141976 -21.5062 -138.855 -1 -21.5062 -138.855 TC 65 -21.5327 -138.750 4 8 269
1976034S21228 1976 12 SP MM FRANCES 1976-02-03 06:00:00 TS -21.5168 -139.197 main 3593 3554 O________OP___ jtwc_sh SH141976 -21.5000 -139.200 -1 -21.5000 220.800 TC 65 -21.5618 -139.189 4 7 266
1976034S21228 1976 12 SP MM FRANCES 1976-02-03 09:00:00 TS -21.5616 -139.608 main 3554 3513 P________PP___ SH141976 -21.5498 -139.607 -1 -21.5498 -139.607 TC 65 -21.5850 -139.610 4 8 259
1976034S21228 1976 12 SP MM FRANCES 1976-02-03 12:00:00 TS -21.6571 -140.000 40 990 wellington main 3515 3474 O_______OOO_O_ jtwc_sh SH141976 -21.6000 -140.000 -1 -22.0000 -140.000 40 990 -21.6000 220.000 TC 65 -21.6000 -140.000 4 -22.0000 -140.000 TC 25 8 260
1976034S21228 1976 12 SP MM FRANCES 1976-02-03 15:00:00 TS -21.7023 -140.475 main 3464 3413 P_______PPP_P_ SH141976 -21.5999 -140.400 -1 -22.0034 -140.734 40 990 -21.5999 -140.400 TC 65 -21.6074 -140.359 4 -22.0007 -140.750 TC 27 9 265
1976034S21228 1976 12 SP MM FRANCES 1976-02-03 18:00:00 TS -21.7380 -141.011 main 3413 3354 O_______POP_O_ jtwc_sh SH141976 -21.6000 -140.800 -1 -22.0042 -141.475 40 990 -21.6000 219.200 TC 65 -21.6179 -140.719 4 -22.0000 -141.500 TC 30 10 266
1976034S21228 1976 12 SP MM FRANCES 1976-02-03 21:00:00 TS -21.7832 -141.584 main 3354 3303 P_______PPP_P_ SH141976 -21.6346 -141.163 -1 -22.0029 -142.228 40 990 -21.6346 -141.163 TC 65 -21.6445 -141.119 4 -21.9997 -142.250 TC 30 11 266
1976034S21228 1976 12 SP MM FRANCES 1976-02-04 00:00:00 TS -21.8200 -142.160 40 990 wellington main 3293 3235 O_______OOO_O_ jtwc_sh SH141976 -21.7000 -141.600 -1 -22.0000 -143.000 40 990 -21.7000 218.400 TC 65 -21.7000 -141.600 4 -22.0000 -143.000 TC 30 12 266
1976034S21228 1976 12 SP MM FRANCES 1976-02-04 03:00:00 TS -21.8689 -142.832 main 3235 3164 P_______PPP_P_ SH141976 -21.7849 -142.198 -1 -21.9977 -143.791 43 987 -21.7849 -142.198 TC 65 -21.7849 -142.222 4 -21.9922 -143.750 TC 32 13 265
1976034S21228 1976 12 SP MM FRANCES 1976-02-04 06:00:00 TS -21.9408 -143.560 main 3154 3085 O_______POP_O_ jtwc_sh SH141976 -21.9000 -142.900 -1 -22.0055 -144.576 47 985 -21.9000 217.100 TC 65 -21.8987 -142.925 4 -22.0000 -144.500 TC 35 14 263
1976034S21228 1976 12 SP MM FRANCES 1976-02-04 09:00:00 TS -22.0357 -144.315 main 3085 3018 P_______PPP_P_ SH141976 -22.0351 -143.650 -1 -22.0354 -145.322 51 982 -22.0351 -143.650 TC 65 -22.0379 -143.666 4 -22.0351 -145.287 TC 35 14 261
1976034S21228 1976 12 SP MM FRANCES 1976-02-04 12:00:00 TS -22.1600 -145.040 55 980 wellington main 3020 2963 O_______OOO_O_ jtwc_sh SH141976 -22.2000 -144.400 -1 -22.1000 -146.000 55 980 -22.2000 215.600 TC 65 -22.2000 -144.400 4 -22.1000 -146.000 TC 35 13 258
1976034S21228 1976 12 SP MM FRANCES 1976-02-04 15:00:00 TS -22.3014 -145.670 main 2953 2906 P_______PPP_P_ SH141976 -22.3921 -145.065 -1 -22.1763 -146.604 55 980 -22.3921 -145.065 TC 65 -22.3696 -145.077 4 -22.1769 -146.538 TC 37 12 255
1976034S21228 1976 12 SP MM FRANCES 1976-02-04 18:00:00 TS -22.4711 -146.255 main 2899 2852 O_______POP_O_ jtwc_sh SH141976 -22.6000 -145.700 -1 -22.2937 -147.135 55 980 -22.6000 214.300 TC 65 -22.5616 -145.738 4 -22.3000 -147.000 TC 40 11 252
1976034S21228 1976 12 SP MM FRANCES 1976-02-04 21:00:00 TS -22.6554 -146.845 main 2855 2803 P_______PPP_P_ SH141976 -22.7923 -146.358 -1 -22.4643 -147.598 55 980 -22.7923 -146.358 TC 65 -22.7728 -146.380 4 -22.4551 -147.530 TC 45 11 249
1976034S21228 1976 12 SP MM FRANCES 1976-02-05 00:00:00 TS -22.8800 -147.400 55 980 wellington main 2803 2761 O_______OOO_O_ jtwc_sh SH141976 -23.0000 -147.000 -1 -22.7000 -148.000 55 980 -23.0000 213.000 TC 65 -23.0000 -147.000 4 -22.7000 -148.000 TC 50 11 242
1976034S21228 1976 12 SP MM FRANCES 1976-02-05 03:00:00 TS -23.1660 -147.900 main 2764 2732 P_______PPP_P_ SH141976 -23.2423 -147.615 -1 -23.0375 -148.333 57 977 -23.2423 -147.615 TC 65 -23.2307 -147.605 4 -23.0772 -148.330 TC 55 11 236
1976034S21228 1976 12 SP MM FRANCES 1976-02-05 06:00:00 TS -23.4820 -148.361 main 2726 2699 O_______POP_O_ jtwc_sh SH141976 -23.5000 -148.200 -1 -23.4333 -148.615 60 975 -23.5000 211.800 TC 65 -23.4765 -148.188 4 -23.5000 -148.600 TC 60 10 233
1976034S21228 1976 12 SP MM FRANCES 1976-02-05 09:00:00 TS -23.7902 -148.807 main 2699 2669 P_______PPP_P_ SH141976 -23.7497 -148.758 -1 -23.8376 -148.890 62 972 -23.7497 -148.758 TC 65 -23.7340 -148.752 4 -23.8798 -148.878 TC 62 10 234
1976034S21228 1976 12 SP MM FRANCES 1976-02-05 12:00:00 TS -24.0800 -149.260 65 970 wellington main 2664 2634 O_______OOO_O_ jtwc_sh SH141976 -24.0000 -149.300 -1 -24.2000 -149.200 65 970 -24.0000 210.700 TC 65 -24.0000 -149.300 4 -24.2000 -149.200 TC 65 10 238
1976034S21228 1976 12 SP MM FRANCES 1976-02-05 15:00:00 TS -24.3292 -149.770 main 2625 2592 P_______PPP_P_ SH141976 -24.2424 -149.858 -1 -24.4633 -149.648 66 968 -24.2424 -149.858 TC 65 -24.2756 -149.860 4 -24.4225 -149.628 TC 67 11 243
1976034S21228 1976 12 SP MM FRANCES 1976-02-05 18:00:00 TS -24.5667 -150.286 main 2592 2555 O_______POP_O_ jtwc_sh SH141976 -24.5000 -150.400 -1 -24.6762 -150.130 67 967 -24.5000 209.600 TC 65 -24.5571 -150.403 4 -24.6000 -150.100 TC 70 10 242
1976034S21228 1976 12 SP MM FRANCES 1976-02-05 21:00:00 TS -24.8187 -150.790 main 2555 2528 P_______PPP_P_ SH141976 -24.7999 -150.923 -1 -24.8509 -150.597 68 966 -24.7999 -150.923 TC 65 -24.8351 -150.919 4 -24.8076 -150.587 TC 72 10 240
1976034S21228 1976 12 SP MM FRANCES 1976-02-06 00:00:00 TS -25.0579 -151.232 70 965 wellington main 2533 2511 O_______OOO_O_ jtwc_sh SH141976 -25.1000 -151.400 -1 -25.0000 -151.000 70 965 -25.1000 208.600 TC 65 -25.1000 -151.400 4 -25.0000 -151.000 TC 75 8 238
1976034S21228 1976 12 SP MM FRANCES 1976-02-06 03:00:00 TS -25.2630 -151.564 main 2507 2494 P_______PPP_P_ SH141976 -25.3605 -151.816 -1 -25.1374 -151.257 70 965 -25.3648 -151.815 TC 65 -25.3341 -151.821 4 -25.1648 -151.238 TC 77 7 235
1976034S21228 1976 12 SP MM FRANCES 1976-02-06 06:00:00 TS -25.4381 -151.837 main 2494 2478 O_______POP_O_ jtwc_sh SH141976 -25.6000 -152.200 -1 -25.2562 -151.446 70 965 -25.6000 207.800 TC 65 -25.5559 -152.209 4 -25.3000 -151.400 TC 80 6 236
1976034S21228 1976 12 SP MM FRANCES 1976-02-06 09:00:00 TS -25.5847 -152.096 main 2478 2457 P_______PPP_P_ SH141976 -25.8159 -152.613 -1 -25.3720 -151.613 70 965 -25.7998 -152.593 TC 65 -25.7747 -152.593 4 -25.3924 -151.585 TC 80 6 238
1976034S21228 1976 12 SP MM FRANCES 1976-02-06 12:00:00 TS -25.7500 -152.400 70 965 wellington main 2457 2442 P_______OOO_O_ SH141976 -26.0082 -153.036 -1 -25.5000 -151.800 70 965 -26.0000 207.000 TC 65 -26.0000 -153.000 4 -25.5000 -151.800 TC 80 7 238
1976034S21228 1976 12 SP MM FRANCES 1976-02-06 15:00:00 TS -25.9606 -152.763 main 2439 2418 P_______PPP_P_ SH141976 -26.1830 -153.466 -1 -25.6564 -152.059 68 966 -26.2423 -153.428 TC 65 -26.2511 -153.479 4 -25.6925 -152.085 TC 75 8 238
1976034S21228 1976 12 SP MM FRANCES 1976-02-06 18:00:00 TS -26.1837 -153.158 main 2416 2394 P_______POP_O_ SH141976 -26.3466 -153.903 -1 -25.8273 -152.348 67 967 -26.5000 206.100 TC 65 -26.5077 -153.985 4 -25.9000 -152.400 TC 70 8 239
1976034S21228 1976 12 SP MM FRANCES 1976-02-06 21:00:00 TS -26.3925 -153.574 main 2394 2372 P_______PPP_P_ SH141976 -26.5052 -154.346 -1 -26.0095 -152.662 66 968 -26.7500 -154.443 TC 65 -26.7604 -154.498 4 -26.0499 -152.693 TC 67 9 241
1976034S21228 1976 12 SP MM FRANCES 1976-02-07 00:00:00 TS -26.6000 -154.000 65 970 wellington main 2372 2352 P_______OOO_O_ SH141976 -26.6650 -154.792 -1 -26.2000 -153.000 65 970 -27.0000 205.000 TC 65 -27.0000 -155.000 4 -26.2000 -153.000 TC 65 8 241
1976034S21228 1976 12 SP MM FRANCES 1976-02-07 03:00:00 TS -26.8074 -154.401 main 2352 2332 P_______PPP_P_ SH141976 -26.8322 -155.241 -1 -26.3623 -153.275 62 972 -27.2649 -155.522 TC 65 -27.2098 -155.473 4 -26.3924 -153.335 TC 62 8 240
1976034S21228 1976 12 SP MM FRANCES 1976-02-07 06:00:00 TS -27.0109 -154.803 main 2332 2314 P_______POP_O_ SH141976 -27.0132 -155.693 -1 -26.5365 -153.582 60 975 -27.5000 204.000 TC 65 -27.4069 -155.931 4 -26.6000 -153.700 TC 60 8 241
1976034S21228 1976 12 SP MM FRANCES 1976-02-07 09:00:00 TS -27.1962 -155.199 main 2314 2296 P_______PPP_P_ SH141976 -27.2141 -156.145 -1 -26.7426 -153.973 57 977 -27.6723 -156.423 TC 65 -27.6005 -156.373 4 -26.7692 -154.026 TC 57 8 243
1976034S21228 1976 12 SP MM FRANCES 1976-02-07 12:00:00 TS -27.4000 -155.650 55 980 wellington main 2296 2272 P_______OOO_O_ SH141976 -27.4414 -156.597 -1 -27.0000 -154.500 55 980 -27.8000 203.200 TC 65 -27.8000 -156.800 4 -27.0000 -154.500 TC 55 10 244
1976034S21228 1976 12 SP MM FRANCES 1976-02-07 15:00:00 TS -27.6232 -156.178 main 2264 2241 P_______PPP_P_ SH141976 -27.7012 -157.049 -1 -27.2841 -155.193 55 980 -27.8697 -157.143 TC 65 -27.9609 -157.102 4 -27.3779 -155.274 TC 52 12 245
1976034S21228 1976 12 SP MM FRANCES 1976-02-07 18:00:00 TS -27.8965 -156.826 main 2241 2213 O_______POP_O_ jtwc_sh SH141976 -28.0000 -157.500 -1 -27.6220 -156.030 55 980 -28.0000 202.500 TC 65 -28.1383 -157.407 4 -27.8000 -156.200 TC 50 13 243
1976034S21228 1976 12 SP MM FRANCES 1976-02-07 21:00:00 TS -28.2064 -157.473 main 2213 2195 P_______PPP_P_ SH141976 -28.3069 -157.854 -1 -28.0237 -156.977 55 980 -28.2813 -157.854 TC 65 -28.3718 -157.808 4 -28.1114 -157.065 TC 47 14 240
1976034S21228 1976 12 SP MM FRANCES 1976-02-08 00:00:00 TS -28.6158 -158.232 55 980 wellington main 2196 2176 O_______OOO_O_ jtwc_sh SH141976 -28.7000 -158.400 -1 -28.5000 -158.000 55 980 -28.7000 201.600 TC 65 -28.7000 -158.400 4 -28.5000 -158.000 TC 45 18 238
1976034S21228 1976 12 SP MM FRANCES 1976-02-08 03:00:00 TS -29.1626 -159.208 main 2180 2135 P_______PPP_P_ SH141976 -29.2199 -159.280 -1 -29.0958 -159.088 51 982 -29.2199 -159.280 TC 65 -29.1652 -159.328 4 -29.1121 -159.062 TC 40 22 238
1976034S21228 1976 12 SP MM FRANCES 1976-02-08 06:00:00 TS -29.7740 -160.340 main 2130 2002 O_______POP_O_ jtwc_sh SH141976 -29.8000 -160.400 -1 -29.7533 -160.241 47 985 -29.8000 199.600 TC 65 -29.7166 -160.456 4 -29.8000 -160.200 TC 35 24 239
1976034S21228 1976 12 SP MM FRANCES 1976-02-08 09:00:00 TS -30.3758 -161.552 main 1988 1869 P_______PPP_P_ SH141976 -30.3583 -161.650 -1 -30.4086 -161.401 43 987 -30.3583 -161.650 TC 65 -30.3088 -161.682 4 -30.4451 -161.380 TC 32 24 241
1976034S21228 1976 12 SP MM FRANCES 1976-02-08 12:00:00 TS -30.9400 -162.740 40 990 wellington main 1869 1759 O_______OOO_O_ jtwc_sh SH141976 -30.9000 -162.900 -1 -31.0000 -162.500 40 990 -30.9000 197.100 TC 65 -30.9000 -162.900 4 -31.0000 -162.500 TC 30 22 241
1976034S21228 1976 12 SP MM FRANCES 1976-02-08 15:00:00 TS -31.4119 -163.758 main 1751 1655 P_______PPP_P_ SH141976 -31.3981 -163.932 -1 -31.4863 -163.551 40 990 -31.3981 -163.932 TC 65 -31.3981 -163.926 4 -31.3786 -163.447 TC 30 19 241
1976034S21228 1976 12 SP MM FRANCES 1976-02-08 18:00:00 TS -31.8593 -164.708 main 1650 1554 O_______POP_O_ jtwc_sh SH141976 -31.9000 -164.900 -1 -31.8993 -164.514 40 990 -31.9000 195.100 TC 65 -31.8970 -164.926 4 -31.7000 -164.300 TC 30 19 241
1976034S21228 1976 12 SP MM FRANCES 1976-02-08 21:00:00 TS -32.3302 -165.675 main 1546 1445 P_______PPP_P_ SH141976 -32.4263 -165.922 -1 -32.2375 -165.346 40 990 -32.4263 -165.922 TC 65 -32.4227 -165.937 4 -32.1381 -165.246 TC 30 19 240
1976034S21228 1976 12 SP MM FRANCES 1976-02-09 00:00:00 TS -32.8000 -166.600 40 990 wellington main 1445 1359 O_______OOO_O_ jtwc_sh SH141976 -33.0000 -167.000 -1 -32.5000 -166.000 40 990 -33.0000 193.000 TC 65 -33.0000 -167.000 4 -32.5000 -166.000 TC 30 17 239
1976034S21228 1976 12 SP MM FRANCES 1976-02-09 03:00:00 TS -33.2341 -167.439 main 1359 1294 P_______PPP_P_ SH141976 -33.6191 -168.164 -1 -32.6512 -166.375 40 990 -33.6191 -168.164 TC 50 -33.6448 -168.148 4 -32.6364 -166.341 TC 30 14 238
1976034S21228 1976 12 SP MM FRANCES 1976-02-09 06:00:00 TS -33.5647 -168.051 main 1281 1247 O_______POP_O_ jtwc_sh SH141976 -34.3000 -169.400 -1 -32.7436 -166.583 40 990 -34.3000 190.600 TC 35 -34.3418 -169.375 4 -32.7000 -166.500 TC 30 10 236
1976034S21228 1976 12 SP MM FRANCES 1976-02-09 09:00:00 TS -33.7780 -168.416 main 1247 1238 P_______PPP_P_ SH141976 -35.0378 -170.682 -1 -32.8394 -166.750 40 990 -35.0378 -170.682 TC 30 -35.0678 -170.666 4 -32.8119 -166.691 TC 30 3 232
1976034S21228 1976 12 SP MM FRANCES 1976-02-09 12:00:00 TS -33.7636 -168.364 40 990 wellington main 1247 1247 O_______OOO_O_ jtwc_sh SH141976 -35.8000 -172.000 -1 -33.0000 -167.000 40 990 -35.8000 188.000 TC 25 -35.8000 -172.000 6 -33.0000 -167.000 TC 30 9 57
1976034S21228 1976 12 SP MM FRANCES 1976-02-09 15:00:00 TS -33.2916 -167.515 main 1346 1281 ________P___P_ SH141976 -1 -33.2702 -167.432 40 990 TC 6 -33.3130 -167.597 TC 30 2 60
1976034S21228 1976 12 SP MM FRANCES 1976-02-09 18:00:00 TS -33.6661 -168.163 main 1268 1199 ________P___O_ -1 -33.6322 -168.026 40 990 6 -33.7000 -168.300 TC 30 13 234
1976034S21228 1976 12 SP MM FRANCES 1976-02-09 21:00:00 TS -34.0765 -168.831 main 1199 1123 ________P___P_ -1 -34.0530 -168.733 40 990 6 -34.1000 -168.929 TC 27 14 233
1976034S21228 1976 12 SP MM FRANCES 1976-02-10 00:00:00 TS -34.5000 -169.500 40 990 wellington main 1123 ________O___O_ -1 -34.5000 -169.500 40 990 -34.5000 -169.500 TC 25 14 232

デジタル台風データ・検索

IBTrACS Databaseについて

本データベースは、米国NOAAが公開する1842年以降の世界の熱帯低気圧のベストトラックデータアーカイブInternational Best Track Archive for Climate Stewardship (IBTrACS)を、ウェブで閲覧しやすい形式に変換したものです。

最終更新日:2021-12-03